Time;durP1;ratioP1;P1;durP2;ratioP2;P2;SDS_P1;SDS_P2;PMS_P1;PMS_P2;Temp;Humidity;BMP_temperature;BMP_pressure;BME280_temperature;BME280_humidity;BME280_pressure;Samples;Min_cycle;Max_cycle;Signal;HPM_P1;HPM_P2
2024/04/05 00:01:03;;;;;;;4.80;2.30;;;11.90;99.90;;;;;;4988295;28;20493;-68
2024/04/05 00:03:29;;;;;;;3.47;2.77;;;11.90;99.90;;;;;;4985852;28;20196;-67
2024/04/05 00:05:54;;;;;;;5.03;2.63;;;11.90;99.90;;;;;;4977039;28;20758;-68
2024/04/05 00:08:24;;;;;;;8.40;3.23;;;12.00;99.90;;;;;;4976469;28;20188;-67
2024/04/05 00:10:50;;;;;;;3.13;2.87;;;12.00;99.90;;;;;;4977100;28;20176;-67
2024/04/05 00:13:15;;;;;;;3.33;2.50;;;12.00;99.90;;;;;;4998916;23;20490;-64
2024/04/05 00:15:41;;;;;;;4.40;2.60;;;12.00;99.90;;;;;;4992786;28;20175;-64
2024/04/05 00:18:07;;;;;;;4.10;2.90;;;12.00;99.90;;;;;;4986906;28;20179;-64
2024/04/05 00:20:32;;;;;;;3.00;2.80;;;11.90;99.90;;;;;;4975989;28;20290;-64
2024/04/05 00:22:58;;;;;;;3.03;2.73;;;11.90;99.90;;;;;;4978562;28;20200;-64
2024/04/05 00:25:23;;;;;;;4.23;2.47;;;12.00;99.90;;;;;;4993946;28;20178;-65
2024/04/05 00:27:49;;;;;;;3.73;2.60;;;12.00;99.90;;;;;;4984126;28;20188;-65
2024/04/05 00:30:14;;;;;;;3.07;2.40;;;12.00;99.90;;;;;;4990536;28;20565;-65
2024/04/05 00:32:40;;;;;;;2.43;1.93;;;12.00;99.90;;;;;;4982079;28;20692;-64
2024/04/05 00:35:06;;;;;;;5.20;3.03;;;12.10;99.90;;;;;;4979042;28;20867;-65
2024/04/05 00:37:31;;;;;;;5.23;2.87;;;12.10;99.90;;;;;;4976043;28;20703;-65
2024/04/05 00:39:57;;;;;;;4.13;2.93;;;12.20;99.90;;;;;;4981129;28;20227;-64
2024/04/05 00:42:22;;;;;;;3.20;2.37;;;12.20;99.90;;;;;;4993648;28;20226;-65
2024/04/05 00:44:48;;;;;;;3.00;2.70;;;12.20;99.90;;;;;;4991976;28;20199;-66
2024/04/05 00:47:14;;;;;;;4.77;3.63;;;12.10;99.90;;;;;;4984689;28;20574;-65
2024/04/05 00:49:40;;;;;;;9.13;3.67;;;12.10;99.90;;;;;;4975552;28;20184;-65
2024/04/05 00:52:06;;;;;;;4.60;2.80;;;12.20;99.90;;;;;;4982361;28;20747;-65
2024/04/05 00:54:32;;;;;;;6.77;3.20;;;12.20;99.90;;;;;;4992953;28;20233;-65
2024/04/05 00:56:58;;;;;;;3.83;2.37;;;12.20;99.90;;;;;;4985366;28;20439;-65
2024/04/05 00:59:26;;;;;;;6.63;2.50;;;12.20;99.90;;;;;;4975111;28;20632;-65
2024/04/05 01:01:52;;;;;;;3.00;2.60;;;12.10;99.90;;;;;;4985049;28;20427;-66
2024/04/05 01:04:17;;;;;;;7.37;2.47;;;12.10;99.90;;;;;;4993434;28;20450;-65
2024/04/05 01:06:43;;;;;;;3.00;2.33;;;12.10;99.90;;;;;;4993428;28;20653;-65
2024/04/05 01:09:09;;;;;;;2.90;2.27;;;12.10;99.90;;;;;;4991293;28;20649;-65
2024/04/05 01:11:34;;;;;;;5.07;2.80;;;12.00;99.90;;;;;;4990035;28;20461;-65
2024/04/05 01:14:00;;;;;;;5.00;2.97;;;12.00;99.90;;;;;;4981675;28;20211;-66
2024/04/05 01:16:26;;;;;;;5.10;3.30;;;12.00;99.90;;;;;;4984319;28;20195;-64
2024/04/05 01:18:57;;;;;;;4.90;2.63;;;11.90;99.90;;;;;;4980131;28;20250;-66
2024/04/05 01:21:23;;;;;;;5.20;3.37;;;11.90;99.90;;;;;;4975291;28;20478;-65
2024/04/05 01:23:49;;;;;;;4.83;2.83;;;11.80;99.90;;;;;;4975815;28;20451;-64
2024/04/05 01:26:14;;;;;;;4.90;3.57;;;11.80;99.90;;;;;;4976164;28;20807;-65
2024/04/05 01:28:40;;;;;;;3.57;2.27;;;11.80;99.90;;;;;;4990085;28;20184;-64
2024/04/05 01:31:05;;;;;;;4.63;2.50;;;11.80;99.90;;;;;;4982874;28;20186;-64
2024/04/05 01:33:31;;;;;;;5.30;2.97;;;11.80;99.90;;;;;;4993785;28;20583;-64
2024/04/05 01:35:56;;;;;;;6.83;4.07;;;11.80;99.90;;;;;;4993500;28;20167;-64
2024/04/05 01:38:22;;;;;;;5.40;2.80;;;11.90;99.90;;;;;;4989354;28;20587;-65
2024/04/05 01:40:47;;;;;;;8.50;3.10;;;11.90;99.90;;;;;;4990944;28;20195;-65
2024/04/05 01:43:13;;;;;;;6.43;2.67;;;11.90;99.90;;;;;;4977602;28;20278;-65
2024/04/05 01:45:38;;;;;;;3.53;2.47;;;11.90;99.90;;;;;;4979086;28;20676;-65
2024/04/05 01:48:05;;;;;;;2.53;2.20;;;11.90;99.90;;;;;;4991238;28;20186;-65
2024/04/05 01:50:30;;;;;;;4.87;2.93;;;11.90;99.90;;;;;;4974328;28;20183;-65
2024/04/05 01:52:56;;;;;;;5.90;4.40;;;11.90;99.90;;;;;;4977284;28;20456;-65
2024/04/05 01:55:21;;;;;;;3.60;2.50;;;11.90;99.90;;;;;;4979927;28;20664;-65
2024/04/05 01:57:47;;;;;;;3.53;2.50;;;11.90;99.90;;;;;;4986052;28;20246;-65
2024/04/05 02:00:12;;;;;;;4.77;2.93;;;11.80;99.90;;;;;;4992352;28;20207;-64
2024/04/05 02:02:39;;;;;;;3.20;2.50;;;11.80;99.90;;;;;;4991382;28;20199;-64
2024/04/05 02:05:05;;;;;;;4.53;2.67;;;11.80;99.90;;;;;;4990346;28;20184;-64
2024/04/05 02:07:30;;;;;;;4.70;2.80;;;11.80;99.90;;;;;;4978657;28;20426;-65
2024/04/05 02:09:56;;;;;;;2.40;2.20;;;11.80;99.90;;;;;;4983990;28;20517;-65
2024/04/05 02:12:23;;;;;;;3.77;2.90;;;11.80;99.90;;;;;;4991376;28;20200;-64
2024/04/05 02:14:49;;;;;;;4.23;2.43;;;11.80;99.90;;;;;;4988193;28;20187;-65
2024/04/05 02:17:14;;;;;;;5.50;5.00;;;11.70;99.90;;;;;;4986312;28;20426;-65
2024/04/05 02:19:40;;;;;;;4.60;3.13;;;11.70;99.90;;;;;;4987301;28;20860;-65
2024/04/05 02:22:05;;;;;;;3.00;2.70;;;11.70;99.90;;;;;;4981376;28;20694;-65
2024/04/05 02:24:32;;;;;;;5.50;3.50;;;11.70;99.90;;;;;;4978357;28;20167;-65
2024/04/05 02:26:58;;;;;;;5.83;3.50;;;11.70;99.90;;;;;;4982295;28;20221;-64
2024/04/05 02:29:23;;;;;;;5.00;3.40;;;11.80;99.90;;;;;;4992856;28;20505;-65
2024/04/05 02:31:49;;;;;;;4.43;2.77;;;11.80;99.90;;;;;;4992030;28;20517;-65
2024/04/05 02:34:14;;;;;;;5.43;3.33;;;11.80;99.90;;;;;;4981406;28;20714;-65
2024/04/05 02:36:40;;;;;;;8.43;3.60;;;11.80;99.90;;;;;;4989268;28;20180;-65
2024/04/05 02:39:06;;;;;;;6.03;2.80;;;11.80;99.90;;;;;;4990650;28;20584;-65
2024/04/05 02:41:32;;;;;;;3.30;2.93;;;11.80;99.90;;;;;;4981130;28;20188;-66
2024/04/05 02:43:58;;;;;;;3.77;2.40;;;11.70;99.90;;;;;;4992376;28;20456;-66
2024/04/05 02:46:23;;;;;;;6.60;3.67;;;11.70;99.90;;;;;;4991032;28;20530;-65
2024/04/05 02:48:49;;;;;;;4.87;3.07;;;11.60;99.90;;;;;;4982298;28;20420;-65
2024/04/05 02:51:14;;;;;;;3.30;3.10;;;11.50;99.90;;;;;;4981293;28;20214;-65
2024/04/05 02:53:40;;;;;;;3.53;3.20;;;11.50;99.90;;;;;;4991813;28;20246;-66
2024/04/05 02:56:06;;;;;;;5.67;3.20;;;11.50;99.90;;;;;;4988847;28;20186;-65
2024/04/05 02:58:31;;;;;;;5.87;3.63;;;11.60;99.90;;;;;;4984780;28;20215;-66
2024/04/05 03:00:57;;;;;;;5.77;3.50;;;11.60;99.90;;;;;;4987399;28;20630;-65
2024/04/05 03:03:23;;;;;;;3.73;3.40;;;11.60;99.90;;;;;;4987572;28;20204;-66
2024/04/05 03:05:49;;;;;;;3.70;3.40;;;11.60;99.90;;;;;;4995801;28;20168;-65
2024/04/05 03:08:15;;;;;;;5.10;3.90;;;11.60;99.90;;;;;;4990986;28;20180;-66
2024/04/05 03:10:41;;;;;;;4.67;3.90;;;11.50;99.90;;;;;;4992355;28;20469;-65
2024/04/05 03:13:07;;;;;;;4.50;4.10;;;11.50;99.90;;;;;;4997284;28;20462;-66
2024/04/05 03:15:33;;;;;;;4.87;3.67;;;11.40;99.90;;;;;;4994084;28;20186;-66
2024/04/05 03:17:59;;;;;;;6.00;3.63;;;11.50;99.90;;;;;;4987549;28;20481;-65
2024/04/05 03:20:25;;;;;;;5.93;3.67;;;11.50;99.90;;;;;;4983807;28;21171;-64
2024/04/05 03:22:50;;;;;;;4.33;3.43;;;11.50;99.90;;;;;;4983656;28;20230;-66
2024/04/05 03:25:16;;;;;;;7.83;2.90;;;11.50;99.90;;;;;;4982200;28;20180;-65
2024/04/05 03:27:41;;;;;;;4.80;3.20;;;11.60;99.90;;;;;;4980608;28;20188;-66
2024/04/05 03:30:07;;;;;;;5.03;3.30;;;11.50;99.90;;;;;;4980676;28;20204;-65
2024/04/05 03:32:33;;;;;;;7.03;3.27;;;11.50;99.90;;;;;;4985645;28;20212;-65
2024/04/05 03:34:59;;;;;;;4.70;3.00;;;11.50;99.90;;;;;;4993074;28;20569;-65
2024/04/05 03:37:24;;;;;;;4.43;3.90;;;11.60;99.90;;;;;;4996703;28;20633;-65
2024/04/05 03:39:53;;;;;;;6.30;3.50;;;11.60;99.90;;;;;;4996789;28;20929;-65
2024/04/05 03:42:19;;;;;;;5.63;3.73;;;11.60;99.90;;;;;;4989996;28;20176;-65
2024/04/05 03:44:46;;;;;;;4.73;3.67;;;11.60;99.90;;;;;;4993320;28;20457;-65
2024/04/05 03:47:12;;;;;;;3.93;3.53;;;11.60;99.90;;;;;;4991438;28;20778;-65
2024/04/05 03:49:37;;;;;;;4.90;3.50;;;11.60;99.90;;;;;;4989022;28;20441;-64
2024/04/05 03:52:03;;;;;;;3.47;3.17;;;11.60;99.90;;;;;;4989983;28;20187;-65
2024/04/05 03:54:29;;;;;;;6.23;3.77;;;11.60;99.90;;;;;;4990680;28;20199;-65
2024/04/05 03:56:54;;;;;;;8.20;3.77;;;11.60;99.90;;;;;;4991312;28;20540;-65
2024/04/05 03:59:20;;;;;;;7.20;3.47;;;11.60;99.90;;;;;;4995972;28;20191;-65
2024/04/05 04:01:45;;;;;;;7.50;3.70;;;11.60;99.90;;;;;;4995022;28;20179;-65
2024/04/05 04:04:11;;;;;;;11.23;4.20;;;11.50;99.90;;;;;;4985938;28;20281;-65
2024/04/05 04:06:36;;;;;;;6.83;3.43;;;11.50;99.90;;;;;;4995295;28;20194;-65
2024/04/05 04:09:02;;;;;;;5.20;2.90;;;11.50;99.90;;;;;;4988025;28;20187;-65
2024/04/05 04:11:28;;;;;;;6.20;3.93;;;11.60;99.90;;;;;;4994049;28;20176;-65
2024/04/05 04:13:54;;;;;;;4.70;3.27;;;11.60;99.90;;;;;;4991338;28;20547;-65
2024/04/05 04:16:20;;;;;;;5.33;4.17;;;11.60;99.90;;;;;;4987723;28;20203;-65
2024/04/05 04:18:47;;;;;;;4.73;4.23;;;11.60;99.90;;;;;;4974977;28;20283;-65
2024/04/05 04:21:12;;;;;;;4.37;3.97;;;11.60;99.90;;;;;;4990754;28;20426;-65
2024/04/05 04:23:38;;;;;;;7.23;3.83;;;11.60;99.90;;;;;;4980301;28;21014;-65
2024/04/05 04:26:05;;;;;;;4.80;4.00;;;11.60;99.90;;;;;;4992023;28;20637;-65
2024/04/05 04:28:32;;;;;;;6.03;4.10;;;11.50;99.90;;;;;;4976275;28;20168;-66
2024/04/05 04:31:15;;;;;;;8.13;5.23;;;11.50;99.90;;;;;;4983290;28;20423;-65
2024/04/05 04:33:40;;;;;;;4.80;3.80;;;11.50;99.90;;;;;;4975723;28;20818;-65
2024/04/05 04:36:06;;;;;;;4.87;4.40;;;11.50;99.90;;;;;;4979139;28;20425;-66
2024/04/05 04:38:32;;;;;;;5.10;4.57;;;11.40;99.90;;;;;;4994101;28;20183;-65
2024/04/05 04:40:57;;;;;;;8.03;4.30;;;11.30;99.90;;;;;;4992698;28;20179;-65
2024/04/05 04:43:23;;;;;;;5.13;4.50;;;11.30;99.90;;;;;;4993254;28;20195;-66
2024/04/05 04:45:48;;;;;;;8.10;5.20;;;11.30;99.90;;;;;;4990328;28;20176;-65
2024/04/05 04:48:14;;;;;;;5.37;4.87;;;11.30;99.90;;;;;;4992651;28;20782;-65
2024/04/05 04:50:39;;;;;;;9.93;4.70;;;11.30;99.90;;;;;;4994487;28;20182;-65
2024/04/05 04:53:04;;;;;;;6.37;4.33;;;11.30;99.90;;;;;;4975822;28;20211;-65
2024/04/05 04:55:30;;;;;;;5.23;4.80;;;11.30;99.90;;;;;;4981835;28;20191;-65
2024/04/05 04:57:55;;;;;;;7.87;4.60;;;11.30;99.90;;;;;;4989715;28;20180;-64
2024/04/05 05:00:21;;;;;;;3.97;3.67;;;11.30;99.90;;;;;;4979733;28;20659;-65
2024/04/05 05:02:47;;;;;;;7.33;4.70;;;11.30;99.90;;;;;;4988606;28;20191;-66
2024/04/05 05:05:12;;;;;;;8.50;5.40;;;11.20;99.90;;;;;;4988039;28;20173;-65
2024/04/05 05:07:39;;;;;;;6.23;4.47;;;11.30;99.90;;;;;;4984736;28;20186;-65
2024/04/05 05:10:06;;;;;;;6.70;5.93;;;11.20;99.90;;;;;;4994123;28;20178;-66
2024/04/05 05:12:32;;;;;;;5.67;4.13;;;11.30;99.90;;;;;;4983214;28;20464;-66
2024/04/05 05:14:58;;;;;;;9.20;4.97;;;11.30;99.90;;;;;;4983328;28;20993;-65
2024/04/05 05:17:24;;;;;;;7.03;4.33;;;11.30;99.90;;;;;;4985974;28;20200;-65
2024/04/05 05:19:50;;;;;;;6.13;5.40;;;11.30;99.90;;;;;;4977432;28;20905;-65
2024/04/05 05:22:15;;;;;;;4.87;4.37;;;11.30;99.90;;;;;;4984867;28;20186;-66
2024/04/05 05:24:41;;;;;;;5.17;4.67;;;11.30;99.90;;;;;;4994250;28;20172;-66
2024/04/05 05:27:06;;;;;;;6.53;4.77;;;11.30;99.90;;;;;;4991189;28;20190;-65
2024/04/05 05:29:32;;;;;;;5.80;4.50;;;11.30;99.90;;;;;;4993719;28;20551;-65
2024/04/05 05:31:57;;;;;;;5.40;4.67;;;11.20;99.90;;;;;;4990747;28;20180;-65
2024/04/05 05:34:23;;;;;;;4.30;4.00;;;11.20;99.90;;;;;;4992265;28;20199;-65
2024/04/05 05:36:49;;;;;;;4.37;3.90;;;11.20;99.90;;;;;;4978397;28;20685;-66
2024/04/05 05:39:14;;;;;;;4.33;3.70;;;11.20;99.90;;;;;;4982118;28;20199;-65
2024/04/05 05:41:40;;;;;;;5.30;3.97;;;11.30;99.90;;;;;;4993612;28;20415;-65
2024/04/05 05:44:05;;;;;;;4.60;3.80;;;11.30;99.90;;;;;;4978174;28;20274;-65
2024/04/05 05:46:31;;;;;;;5.00;2.87;;;11.40;99.90;;;;;;4991670;28;20179;-66
2024/04/05 05:48:57;;;;;;;4.70;3.80;;;11.50;99.90;;;;;;4993365;28;20201;-65
2024/04/05 05:51:22;;;;;;;6.23;3.60;;;11.70;99.90;;;;;;4992136;28;20184;-65
2024/04/05 05:53:48;;;;;;;3.70;3.40;;;11.80;99.90;;;;;;4987648;28;20568;-65
2024/04/05 05:56:13;;;;;;;6.20;4.80;;;12.00;99.90;;;;;;4984151;28;20242;-64
2024/04/05 05:58:39;;;;;;;6.63;4.30;;;12.30;99.90;;;;;;4989889;28;20210;-65
2024/04/05 06:01:08;;;;;;;6.50;4.80;;;12.50;99.90;;;;;;4983406;28;20179;-66
2024/04/05 06:03:34;;;;;;;5.30;4.70;;;12.70;99.90;;;;;;4989155;28;20448;-65
2024/04/05 06:06:02;;;;;;;5.53;4.17;;;12.90;99.90;;;;;;4981452;28;20945;-65
2024/04/05 06:08:29;;;;;;;6.23;3.90;;;13.10;99.90;;;;;;4992802;28;20202;-64
2024/04/05 06:10:58;;;;;;;4.50;2.83;;;13.30;99.90;;;;;;4992958;28;20465;-64
2024/04/05 06:13:23;;;;;;;4.10;3.13;;;13.50;99.90;;;;;;5006612;23;20492;-67
2024/04/05 06:15:54;;;;;;;4.53;3.10;;;13.60;99.90;;;;;;4990971;28;20518;-66
2024/04/05 06:18:20;;;;;;;5.10;4.00;;;13.60;99.90;;;;;;4991145;28;20188;-66
2024/04/05 06:20:52;;;;;;;3.73;3.30;;;13.60;99.90;;;;;;4985642;28;20458;-66
2024/04/05 06:23:18;;;;;;;3.57;3.03;;;13.50;99.90;;;;;;4988794;28;20250;-66
2024/04/05 06:25:54;;;;;;;5.57;2.63;;;13.50;99.90;;;;;;4992752;28;20465;-66
2024/04/05 06:28:20;;;;;;;5.13;2.80;;;13.60;99.90;;;;;;4982218;28;20238;-66
2024/04/05 06:30:46;;;;;;;4.50;2.67;;;13.80;99.90;;;;;;4979014;28;20521;-66
2024/04/05 06:33:11;;;;;;;8.20;2.77;;;14.00;99.90;;;;;;4992435;28;20545;-66
2024/04/05 06:35:37;;;;;;;9.20;2.87;;;14.20;99.90;;;;;;4990687;28;20262;-66
2024/04/05 06:38:02;;;;;;;2.43;2.23;;;14.40;99.90;;;;;;4992028;28;20234;-68
2024/04/05 06:40:28;;;;;;;2.73;2.50;;;14.80;99.90;;;;;;4979161;28;20203;-66
2024/04/05 06:42:53;;;;;;;6.73;2.47;;;15.10;99.90;;;;;;4981006;28;20688;-68
2024/04/05 06:45:19;;;;;;;2.60;2.40;;;15.30;99.90;;;;;;4989261;28;20175;-66
2024/04/05 06:47:44;;;;;;;3.43;2.20;;;15.40;99.90;;;;;;4986415;28;20180;-66
2024/04/05 06:50:10;;;;;;;7.07;2.83;;;15.60;99.90;;;;;;4975694;28;20172;-65
2024/04/05 06:52:36;;;;;;;4.07;2.67;;;15.90;99.90;;;;;;4990366;28;20175;-65
2024/04/05 06:55:02;;;;;;;5.40;3.17;;;16.10;99.90;;;;;;4992042;28;20184;-65
2024/04/05 06:57:28;;;;;;;6.67;3.13;;;16.50;99.90;;;;;;4991235;28;20423;-66
2024/04/05 06:59:53;;;;;;;3.17;2.83;;;16.60;99.90;;;;;;4992408;28;20597;-67
2024/04/05 07:02:21;;;;;;;3.27;2.30;;;16.50;99.90;;;;;;4986573;28;20520;-66
2024/04/05 07:04:46;;;;;;;2.57;2.37;;;16.30;99.90;;;;;;4980941;28;20250;-66
2024/04/05 07:07:12;;;;;;;7.33;2.37;;;16.00;99.90;;;;;;4990656;28;20840;-67
2024/04/05 07:09:37;;;;;;;5.80;3.00;;;15.90;99.90;;;;;;4991374;28;20245;-69
2024/04/05 07:12:04;;;;;;;2.70;2.47;;;15.80;99.90;;;;;;4991130;28;20179;-66
2024/04/05 07:14:30;;;;;;;3.43;2.20;;;15.90;99.90;;;;;;4991371;28;20277;-68
2024/04/05 07:16:56;;;;;;;3.53;2.70;;;15.90;99.90;;;;;;4981475;28;20431;-69
2024/04/05 07:19:23;;;;;;;3.17;2.30;;;15.90;99.90;;;;;;4984296;28;20695;-68
2024/04/05 07:21:49;;;;;;;3.40;2.10;;;15.90;99.90;;;;;;4984446;28;20845;-68
2024/04/05 07:24:15;;;;;;;5.17;2.47;;;16.00;99.90;;;;;;4990127;28;20459;-68
2024/04/05 07:26:42;;;;;;;6.53;2.70;;;16.10;99.90;;;;;;4983022;28;20450;-68
2024/04/05 07:29:09;;;;;;;2.70;1.80;;;16.10;99.90;;;;;;4975413;28;20275;-69
2024/04/05 07:31:36;;;;;;;2.60;2.40;;;16.20;99.90;;;;;;4976924;28;20439;-69
2024/04/05 07:34:02;;;;;;;4.40;2.47;;;16.50;99.90;;;;;;4972531;28;20469;-69
2024/04/05 07:36:28;;;;;;;6.40;2.90;;;16.80;99.90;;;;;;4986246;28;20446;-68
2024/04/05 07:38:54;;;;;;;3.27;2.23;;;17.10;99.90;;;;;;4987561;28;20434;-68
2024/04/05 07:41:19;;;;;;;2.70;2.50;;;17.30;99.90;;;;;;4978471;28;20499;-69
2024/04/05 07:43:45;;;;;;;4.00;2.83;;;17.40;99.90;;;;;;4979956;28;20203;-69
2024/04/05 07:46:10;;;;;;;3.13;2.63;;;17.40;99.90;;;;;;4989544;28;20182;-68
2024/04/05 07:48:36;;;;;;;2.80;2.00;;;17.50;99.90;;;;;;4990728;28;20238;-69
2024/04/05 07:51:04;;;;;;;3.90;2.50;;;17.50;99.90;;;;;;4991113;28;20634;-69
2024/04/05 07:53:29;;;;;;;3.10;2.33;;;17.50;99.90;;;;;;4995575;28;20199;-69
2024/04/05 07:55:55;;;;;;;4.87;2.17;;;17.50;99.90;;;;;;4992062;28;20442;-68
2024/04/05 07:58:21;;;;;;;2.27;2.07;;;17.30;99.90;;;;;;4994728;28;20211;-69
2024/04/05 08:00:47;;;;;;;8.60;2.87;;;17.30;99.90;;;;;;4984246;28;20215;-66
2024/04/05 08:03:13;;;;;;;4.63;2.83;;;17.50;99.90;;;;;;4994054;28;20210;-68
2024/04/05 08:05:38;;;;;;;3.73;2.10;;;17.80;99.90;;;;;;4988240;28;20927;-68
2024/04/05 08:08:04;;;;;;;3.97;2.23;;;17.80;99.90;;;;;;4985225;28;20270;-66
2024/04/05 08:10:33;;;;;;;2.80;2.60;;;18.00;99.90;;;;;;4983209;28;20184;-68
2024/04/05 08:12:58;;;;;;;4.83;2.57;;;18.10;99.90;;;;;;4988459;28;20306;-68
2024/04/05 08:15:25;;;;;;;3.00;2.20;;;18.20;99.90;;;;;;4994408;28;20998;-68
2024/04/05 08:17:51;;;;;;;3.43;3.20;;;18.10;99.90;;;;;;4991709;28;20183;-68
2024/04/05 08:20:18;;;;;;;5.83;3.67;;;18.20;99.90;;;;;;4986994;28;21132;-65
2024/04/05 08:22:43;;;;;;;2.83;2.50;;;18.30;99.90;;;;;;4992322;28;20231;-66
2024/04/05 08:25:09;;;;;;;3.37;2.13;;;18.50;99.90;;;;;;4993468;28;20481;-66
2024/04/05 08:27:35;;;;;;;5.20;2.23;;;18.70;99.90;;;;;;4977086;28;20176;-63
2024/04/05 08:30:01;;;;;;;2.57;2.10;;;18.70;99.90;;;;;;4988344;28;20184;-63
2024/04/05 08:32:27;;;;;;;4.03;2.77;;;18.70;99.90;;;;;;4994435;28;20423;-62
2024/04/05 08:34:52;;;;;;;4.13;2.10;;;18.80;99.90;;;;;;4983875;28;20211;-62
2024/04/05 08:37:18;;;;;;;2.80;2.60;;;18.90;99.90;;;;;;4985476;28;20616;-63
2024/04/05 08:39:44;;;;;;;3.20;1.93;;;19.20;99.90;;;;;;4991789;28;20195;-63
2024/04/05 08:42:12;;;;;;;2.50;1.83;;;19.60;99.90;;;;;;4991000;28;20561;-62
2024/04/05 08:44:47;;;;;;;3.33;2.27;;;19.70;99.90;;;;;;4988892;28;20201;-63
2024/04/05 08:47:13;;;;;;;3.70;2.90;;;19.80;99.90;;;;;;4989380;28;20469;-63
2024/04/05 08:49:40;;;;;;;2.40;2.20;;;20.10;99.90;;;;;;4984936;28;20464;-62
2024/04/05 08:52:06;;;;;;;3.60;3.10;;;20.00;99.90;;;;;;4990901;28;20924;-63
2024/04/05 08:54:32;;;;;;;2.70;2.50;;;20.10;99.90;;;;;;4992478;28;20535;-64
2024/04/05 08:57:00;;;;;;;2.30;2.10;;;20.20;99.90;;;;;;4987703;28;20183;-64
2024/04/05 08:59:29;;;;;;;3.90;2.30;;;20.60;99.90;;;;;;4989995;28;20462;-64
2024/04/05 09:01:58;;;;;;;2.27;1.83;;;20.90;99.90;;;;;;4990496;28;20792;-66
2024/04/05 09:04:31;;;;;;;2.87;2.30;;;21.00;99.90;;;;;;4982799;28;20867;-67
2024/04/05 09:06:57;;;;;;;2.27;2.07;;;21.20;99.90;;;;;;4984100;28;20446;-67
2024/04/05 09:09:30;;;;;;;2.30;2.10;;;21.20;99.90;;;;;;4992345;28;20515;-67
2024/04/05 09:12:04;;;;;;;2.87;2.20;;;21.30;99.90;;;;;;5004092;28;20432;-67
2024/04/05 09:14:30;;;;;;;6.93;2.10;;;21.40;99.90;;;;;;4984074;28;20494;-67
2024/04/05 09:16:57;;;;;;;3.80;2.00;;;21.70;99.90;;;;;;4981315;28;20515;-67
2024/04/05 09:19:22;;;;;;;2.60;2.03;;;22.20;99.90;;;;;;4992284;28;20458;-66
2024/04/05 09:21:48;;;;;;;3.67;2.07;;;22.40;99.90;;;;;;4990085;28;20427;-67
2024/04/05 09:24:17;;;;;;;4.30;2.23;;;23.30;99.40;;;;;;4987332;28;20279;-67
2024/04/05 09:26:43;;;;;;;2.80;1.97;;;23.70;96.60;;;;;;4983706;28;20192;-67
2024/04/05 09:29:13;;;;;;;2.33;1.53;;;23.50;95.20;;;;;;4990363;28;20967;-67
2024/04/05 09:31:39;;;;;;;3.03;1.50;;;23.80;95.50;;;;;;4984872;28;20540;-67
2024/04/05 09:34:08;;;;;;;2.73;2.40;;;24.10;92.90;;;;;;4983225;28;20450;-66
2024/04/05 09:36:34;;;;;;;2.73;1.87;;;24.20;93.80;;;;;;4991454;28;20435;-69
2024/04/05 09:39:07;;;;;;;5.77;1.80;;;25.00;91.60;;;;;;4980807;28;20435;-67
2024/04/05 09:41:34;;;;;;;2.00;1.80;;;25.80;82.10;;;;;;4984174;28;20435;-68
2024/04/05 09:44:03;;;;;;;2.07;1.50;;;25.80;80.10;;;;;;4976249;28;20474;-69
2024/04/05 09:46:29;;;;;;;2.90;2.23;;;25.90;75.80;;;;;;4984491;28;20471;-69
2024/04/05 09:48:55;;;;;;;1.60;1.50;;;25.80;69.40;;;;;;4990615;28;20441;-68
2024/04/05 09:51:26;;;;;;;2.13;1.57;;;26.20;71.60;;;;;;4992189;28;20502;-69
2024/04/05 09:53:52;;;;;;;3.53;1.90;;;26.70;68.20;;;;;;4977553;28;20463;-67
2024/04/05 09:56:18;;;;;;;2.30;1.63;;;26.90;63.40;;;;;;4989711;28;20529;-64
2024/04/05 09:58:49;;;;;;;1.90;1.70;;;26.80;59.70;;;;;;4988607;28;20502;-67
2024/04/05 10:01:16;;;;;;;2.17;1.43;;;26.90;58.00;;;;;;4983817;28;21031;-66
2024/04/05 10:03:44;;;;;;;1.90;1.30;;;26.50;56.90;;;;;;4989416;28;20457;-65
2024/04/05 10:06:17;;;;;;;2.70;1.40;;;27.20;56.40;;;;;;4992593;28;20427;-66
2024/04/05 10:08:44;;;;;;;2.00;1.43;;;28.80;53.10;;;;;;4986717;28;20474;-68
2024/04/05 10:11:14;;;;;;;2.10;1.80;;;28.50;48.10;;;;;;4987941;28;20924;-65
2024/04/05 10:13:40;;;;;;;2.03;1.77;;;28.90;45.90;;;;;;4985262;28;20467;-64
2024/04/05 10:16:06;;;;;;;2.07;1.30;;;27.80;45.70;;;;;;4992049;28;20427;-64
2024/04/05 10:18:34;;;;;;;2.40;1.53;;;27.30;46.90;;;;;;4992067;28;20422;-63
2024/04/05 10:21:12;;;;;;;2.00;1.80;;;27.50;47.40;;;;;;4992837;28;20464;-65
2024/04/05 10:23:39;;;;;;;1.63;1.53;;;28.10;45.10;;;;;;4992302;28;20461;-65
2024/04/05 10:26:11;;;;;;;2.17;1.63;;;28.80;41.80;;;;;;4992575;28;20453;-65
2024/04/05 10:28:37;;;;;;;3.47;1.50;;;28.80;41.50;;;;;;4991742;28;20433;-65
2024/04/05 10:31:05;;;;;;;1.77;1.67;;;29.40;40.00;;;;;;4992504;28;20434;-65
2024/04/05 10:33:31;;;;;;;1.60;1.23;;;28.20;37.90;;;;;;4978456;28;20503;-64
2024/04/05 10:35:58;;;;;;;1.80;1.30;;;28.20;38.80;;;;;;4974815;28;20984;-65
2024/04/05 10:38:24;;;;;;;4.37;1.77;;;28.70;36.40;;;;;;4983216;28;20180;-65
2024/04/05 10:40:59;;;;;;;2.80;1.30;;;28.00;38.10;;;;;;4992458;28;20462;-66
2024/04/05 10:43:25;;;;;;;2.83;1.27;;;27.60;38.00;;;;;;4992280;28;20195;-66
2024/04/05 10:45:53;;;;;;;2.03;1.67;;;27.10;37.70;;;;;;4992194;28;20426;-64
2024/04/05 10:48:19;;;;;;;1.60;1.50;;;26.10;40.00;;;;;;4991422;28;20427;-65
2024/04/05 10:50:45;;;;;;;1.80;1.40;;;25.20;41.30;;;;;;4992445;28;20837;-68
2024/04/05 10:53:19;;;;;;;3.17;2.00;;;24.90;42.70;;;;;;4985637;28;20631;-69
2024/04/05 10:55:45;;;;;;;2.40;1.63;;;25.10;44.10;;;;;;4983373;28;20210;-68
2024/04/05 10:58:12;;;;;;;2.47;1.77;;;25.10;42.40;;;;;;4991443;28;20457;-69
2024/04/05 11:00:38;;;;;;;1.43;1.33;;;25.20;42.40;;;;;;4992303;28;21204;-68
2024/04/05 11:03:09;;;;;;;1.93;1.70;;;24.60;43.30;;;;;;4989076;28;20431;-68
2024/04/05 11:05:35;;;;;;;2.00;1.80;;;24.60;44.80;;;;;;4991831;28;20437;-70
2024/04/05 11:08:03;;;;;;;1.90;1.30;;;25.20;43.90;;;;;;4991459;28;20892;-69
2024/04/05 11:10:33;;;;;;;2.20;1.60;;;26.40;43.30;;;;;;4992378;28;20924;-68
2024/04/05 11:13:00;;;;;;;3.00;1.43;;;26.80;40.40;;;;;;4992340;28;20535;-69
2024/04/05 11:15:25;;;;;;;2.40;1.40;;;26.60;40.40;;;;;;4973672;28;20808;-68
2024/04/05 11:18:01;;;;;;;1.47;1.37;;;26.00;40.20;;;;;;4991458;28;20414;-68
2024/04/05 11:20:29;;;;;;;1.97;1.30;;;25.70;39.80;;;;;;4992241;28;20222;-68
2024/04/05 11:23:03;;;;;;;1.37;1.23;;;25.30;40.80;;;;;;4990612;28;20458;-68
2024/04/05 11:25:30;;;;;;;4.10;1.80;;;24.80;41.90;;;;;;4972807;28;20416;-69
2024/04/05 11:27:55;;;;;;;1.63;1.10;;;24.70;42.40;;;;;;4992603;28;20985;-69
2024/04/05 11:30:21;;;;;;;1.73;1.20;;;24.60;41.70;;;;;;4995885;28;20423;-69
2024/04/05 11:32:47;;;;;;;2.53;1.17;;;24.50;42.10;;;;;;4987673;28;20180;-69
2024/04/05 11:35:13;;;;;;;2.97;1.57;;;24.40;43.00;;;;;;4995674;28;20445;-69
2024/04/05 11:37:39;;;;;;;1.70;1.50;;;23.90;42.50;;;;;;4994803;28;20214;-68
2024/04/05 11:40:09;;;;;;;3.00;1.60;;;23.70;44.60;;;;;;4978862;28;20310;-68
2024/04/05 11:42:35;;;;;;;1.50;1.40;;;23.60;45.40;;;;;;4976217;28;20447;-69
2024/04/05 11:45:00;;;;;;;2.60;1.87;;;23.40;45.30;;;;;;4989801;28;20793;-69
2024/04/05 11:47:26;;;;;;;2.33;1.37;;;23.20;46.60;;;;;;4994646;28;20509;-68
2024/04/05 11:49:52;;;;;;;2.50;1.40;;;23.10;47.40;;;;;;4995776;28;20788;-68
2024/04/05 11:52:18;;;;;;;5.30;1.80;;;23.00;48.70;;;;;;4995255;28;20182;-68
2024/04/05 11:54:46;;;;;;;1.57;1.47;;;23.20;48.60;;;;;;4995184;28;20449;-67
2024/04/05 11:57:16;;;;;;;3.20;1.83;;;23.20;49.20;;;;;;4994662;28;20206;-68
2024/04/05 11:59:42;;;;;;;2.27;1.40;;;23.30;49.30;;;;;;4995635;28;20982;-67
2024/04/05 12:02:08;;;;;;;1.90;1.10;;;23.20;49.10;;;;;;4992333;28;20424;-67
2024/04/05 12:04:33;;;;;;;1.40;1.30;;;23.00;49.90;;;;;;4985787;28;20192;-68
2024/04/05 12:06:59;;;;;;;2.57;1.53;;;22.80;50.70;;;;;;4986168;28;20430;-68
2024/04/05 12:09:25;;;;;;;1.97;1.30;;;22.80;51.20;;;;;;4982538;28;20188;-70
2024/04/05 12:11:52;;;;;;;1.53;1.10;;;22.90;51.10;;;;;;4993595;28;20184;-70
2024/04/05 12:14:18;;;;;;;1.73;1.47;;;23.10;51.00;;;;;;4993477;28;20211;-67
2024/04/05 12:16:43;;;;;;;2.00;1.30;;;24.40;48.40;;;;;;4994124;28;20876;-67
2024/04/05 12:19:10;;;;;;;1.63;1.27;;;25.20;44.80;;;;;;4994644;28;20203;-68
2024/04/05 12:21:36;;;;;;;1.40;1.30;;;25.30;42.80;;;;;;4994868;28;20223;-67
2024/04/05 12:24:01;;;;;;;2.17;1.33;;;25.60;43.20;;;;;;4992445;28;20446;-67
2024/04/05 12:26:27;;;;;;;1.40;1.20;;;26.40;42.40;;;;;;4975179;28;20230;-67
2024/04/05 12:28:54;;;;;;;1.40;1.30;;;27.20;39.90;;;;;;4977953;28;20226;-67
2024/04/05 12:31:20;;;;;;;2.97;1.33;;;27.70;38.40;;;;;;4994889;28;20164;-67
2024/04/05 12:33:45;;;;;;;1.93;1.63;;;27.30;38.30;;;;;;4978264;28;20447;-66
2024/04/05 12:36:13;;;;;;;1.73;1.13;;;26.70;38.90;;;;;;4979202;28;20485;-67
2024/04/05 12:38:39;;;;;;;4.10;2.20;;;26.60;39.70;;;;;;4993257;28;20172;-68
2024/04/05 12:41:06;;;;;;;2.50;1.70;;;26.60;39.80;;;;;;4994148;28;21006;-68
2024/04/05 12:43:34;;;;;;;2.90;2.70;;;25.90;40.50;;;;;;4994626;28;20439;-67